Time;durP1;ratioP1;P1;durP2;ratioP2;P2;SDS_P1;SDS_P2;PMS_P1;PMS_P2;Temp;Humidity;BMP_temperature;BMP_pressure;BME280_temperature;BME280_humidity;BME280_pressure;Samples;Min_cycle;Max_cycle;Signal;HPM_P1;HPM_P2
2021/12/05 00:20:32;;;;;;;16.08;5.25;;;;;;;;;;4361144;33;20069;-71
2021/12/05 00:23:30;;;;;;;17.90;5.62;;;;;;;;;;4360714;33;20407;-72
2021/12/05 00:25:58;;;;;;;28.48;6.22;;;;;;;;;;4361964;33;20093;-72
2021/12/05 00:42:41;;;;;;;19.15;5.82;;;;;;;;;;4358488;32;20104;-72
2021/12/05 00:58:23;;;;;;;18.45;5.30;;;;;;;;;;4362966;32;20012;-72
2021/12/05 01:14:49;;;;;;;21.30;5.78;;;;;;;;;;4362585;32;20069;-71
2021/12/05 01:17:17;;;;;;;15.70;5.03;;;;;;;;;;4363847;32;20392;-71
2021/12/05 01:19:43;;;;;;;19.67;5.18;;;;;;;;;;4346771;33;20024;-71
2021/12/05 01:22:11;;;;;;;;;;;;;;;;;;4360434;32;20374;-72
2021/12/05 01:27:15;;;;;;;;;;;;;;;;;;4363630;32;20106;-71
2021/12/05 01:29:58;;;;;;;22.02;6.85;;;;;;;;;;4362578;33;19938;-71
2021/12/05 01:32:57;;;;;;;25.05;5.18;;;;;;;;;;4362570;32;20011;-71
2021/12/05 01:38:03;;;;;;;23.25;5.68;;;;;;;;;;4362374;32;20114;-71
2021/12/05 01:44:15;;;;;;;18.62;6.35;;;;;;;;;;4360471;32;20070;-71
2021/12/05 01:47:32;;;;;;;21.58;5.37;;;;;;;;;;4363416;32;20023;-71
2021/12/05 01:55:19;;;;;;;24.27;5.32;;;;;;;;;;4362234;32;20035;-71
2021/12/05 02:01:02;;;;;;;20.12;5.82;;;;;;;;;;4362841;32;20012;-72
2021/12/05 02:09:24;;;;;;;21.98;5.65;;;;;;;;;;4362489;32;20058;-71
2021/12/05 02:39:29;;;;;;;22.52;6.47;;;;;;;;;;4361812;32;20429;-71
2021/12/05 02:41:56;;;;;;;17.45;5.22;;;;;;;;;;4361864;32;20374;-71
2021/12/05 02:44:24;;;;;;;20.67;6.37;;;;;;;;;;4361518;32;20031;-71
2021/12/05 02:47:02;;;;;;;31.00;5.82;;;;;;;;;;4361551;33;20142;-71
2021/12/05 02:49:27;;;;;;;26.00;6.00;;;;;;;;;;4361702;32;20024;-72
2021/12/05 02:51:57;;;;;;;;;;;;;;;;;;4361733;32;20031;-71
2021/12/05 02:54:23;;;;;;;21.55;6.18;;;;;;;;;;4361375;32;19934;-71
2021/12/05 02:56:51;;;;;;;30.65;6.60;;;;;;;;;;4361765;32;20066;-71
2021/12/05 02:59:23;;;;;;;25.50;6.75;;;;;;;;;;4361008;32;20364;-71
2021/12/05 03:01:56;;;;;;;19.85;5.32;;;;;;;;;;4362042;32;20401;-71
2021/12/05 03:04:24;;;;;;;25.02;7.32;;;;;;;;;;4362062;32;20074;-71
2021/12/05 03:06:52;;;;;;;29.48;7.18;;;;;;;;;;4360925;33;20404;-71
2021/12/05 03:09:18;;;;;;;23.87;6.05;;;;;;;;;;4361658;32;20368;-71
2021/12/05 03:11:44;;;;;;;23.83;6.15;;;;;;;;;;4360899;32;20103;-70
2021/12/05 03:14:09;;;;;;;;;;;;;;;;;;4363124;32;20054;-71
2021/12/05 03:16:35;;;;;;;28.70;8.02;;;;;;;;;;4360796;33;19953;-71
2021/12/05 03:19:00;;;;;;;;;;;;;;;;;;4361471;32;20054;-71
2021/12/05 03:21:26;;;;;;;22.85;7.78;;;;;;;;;;4361164;32;19939;-71
2021/12/05 03:23:51;;;;;;;;;;;;;;;;;;4361883;32;20193;-71
2021/12/05 03:26:18;;;;;;;19.55;6.97;;;;;;;;;;4361316;32;19961;-71
2021/12/05 03:28:44;;;;;;;15.07;6.18;;;;;;;;;;4361250;32;20123;-71
2021/12/05 03:31:09;;;;;;;;;;;;;;;;;;4361324;32;20069;-71
2021/12/05 03:33:35;;;;;;;25.55;6.75;;;;;;;;;;4361073;32;19954;-71
2021/12/05 03:36:00;;;;;;;;;;;;;;;;;;4361794;32;20149;-71
2021/12/05 03:38:26;;;;;;;18.23;6.40;;;;;;;;;;4359593;33;20268;-71
2021/12/05 03:40:51;;;;;;;;;;;;;;;;;;4360912;32;20303;-71
2021/12/05 03:43:17;;;;;;;15.80;6.72;;;;;;;;;;4361147;32;19973;-70
2021/12/05 03:45:47;;;;;;;12.07;5.93;;;;;;;;;;4360126;33;20385;-70
2021/12/05 03:48:13;;;;;;;17.87;6.20;;;;;;;;;;4361031;32;20058;-71
2021/12/05 03:50:38;;;;;;;;;;;;;;;;;;4346978;33;20071;-71
2021/12/05 03:53:04;;;;;;;16.27;7.70;;;;;;;;;;4361504;32;19949;-71
2021/12/05 03:55:29;;;;;;;;;;;;;;;;;;4362494;32;20414;-71
2021/12/05 03:57:54;;;;;;;12.98;6.47;;;;;;;;;;4360836;32;19939;-71
2021/12/05 04:00:19;;;;;;;;;;;;;;;;;;4360425;32;20024;-71
2021/12/05 04:02:49;;;;;;;14.10;7.18;;;;;;;;;;4359523;32;19941;-71
2021/12/05 04:05:14;;;;;;;14.40;9.23;;;;;;;;;;4372734;32;20116;-71
2021/12/05 04:07:39;;;;;;;;;;;;;;;;;;4376035;32;20057;-71
2021/12/05 04:10:05;;;;;;;12.78;8.12;;;;;;;;;;4375547;32;19934;-71
2021/12/05 04:12:30;;;;;;;;;;;;;;;;;;4375632;32;20094;-71
2021/12/05 04:14:55;;;;;;;12.60;7.20;;;;;;;;;;4374108;32;19938;-71
2021/12/05 04:17:21;;;;;;;;;;;;;;;;;;4375800;32;20028;-71
2021/12/05 04:19:46;;;;;;;8.38;5.62;;;;;;;;;;4375278;32;19934;-71
2021/12/05 04:22:12;;;;;;;;;;;;;;;;;;4361876;32;20027;-71
2021/12/05 04:24:37;;;;;;;12.77;6.10;;;;;;;;;;4374919;32;19930;-71
2021/12/05 04:27:02;;;;;;;;;;;;;;;;;;4375732;32;20303;-71
2021/12/05 04:30:03;;;;;;;12.54;5.76;;;;;;;;;;4375301;32;20322;-71
2021/12/05 04:32:28;;;;;;;9.13;6.07;;;;;;;;;;4366627;32;20019;-71
2021/12/05 04:34:56;;;;;;;;;;;;;;;;;;4375513;32;20065;-71
2021/12/05 04:37:23;;;;;;;12.02;7.95;;;;;;;;;;4375199;32;20292;-71
2021/12/05 04:39:59;;;;;;;9.20;5.47;;;;;;;;;;4361757;32;20051;-71
2021/12/05 04:42:24;;;;;;;9.80;6.15;;;;;;;;;;4375797;32;20038;-71
2021/12/05 04:44:49;;;;;;;;;;;;;;;;;;4375956;32;20346;-71
2021/12/05 04:47:17;;;;;;;13.02;8.07;;;;;;;;;;4373987;32;19949;-71
2021/12/05 04:49:43;;;;;;;15.43;8.45;;;;;;;;;;4375522;32;20194;-71
2021/12/05 04:52:08;;;;;;;;;;;;;;;;;;4353931;32;20508;-71
2021/12/05 04:54:34;;;;;;;15.18;8.55;;;;;;;;;;4345655;33;19939;-71
2021/12/05 04:56:59;;;;;;;;;;;;;;;;;;4346142;33;20023;-71
2021/12/05 04:59:27;;;;;;;22.46;10.50;;;;;;;;;;4345383;33;19939;-71
2021/12/05 05:01:53;;;;;;;18.45;9.60;;;;;;;;;;4345231;33;20111;-71
2021/12/05 05:04:26;;;;;;;16.05;10.15;;;;;;;;;;4330423;33;20050;-71
2021/12/05 05:06:51;;;;;;;23.20;10.52;;;;;;;;;;4345181;33;20019;-71
2021/12/05 05:09:26;;;;;;;;;;;;;;;;;;;;;
2021/12/05 05:11:52;;;;;;;15.82;10.45;;;;;;;;;;4342037;33;20317;-71
2021/12/05 05:14:18;;;;;;;;;;;;;;;;;;4345669;33;20054;-72
2021/12/05 05:16:44;;;;;;;22.23;11.55;;;;;;;;;;4345016;33;20316;-71
2021/12/05 05:19:11;;;;;;;22.00;12.43;;;;;;;;;;4345698;33;20056;-71
2021/12/05 05:41:34;;;;;;;11.95;6.37;;;;;;;;;;4348243;33;20373;-71
2021/12/05 05:46:26;;;;;;;11.98;7.03;;;;;;;;;;4348293;32;20388;-71
2021/12/05 05:49:09;;;;;;;;;;;;;;;;;;;;;
2021/12/05 05:51:35;;;;;;;12.40;8.10;;;;;;;;;;4347202;33;20070;-71
2021/12/05 05:54:00;;;;;;;;;;;;;;;;;;4362878;32;20031;-71
2021/12/05 05:56:35;;;;;;;12.45;7.32;;;;;;;;;;4362776;32;19958;-71
2021/12/05 05:59:39;;;;;;;13.50;7.60;;;;;;;;;;4362518;32;20128;-71
2021/12/05 06:05:08;;;;;;;13.70;8.13;;;;;;;;;;4362533;32;20163;-71
2021/12/05 06:07:42;;;;;;;10.43;7.93;;;;;;;;;;4361148;32;20090;-71
2021/12/05 06:10:19;;;;;;;14.68;8.52;;;;;;;;;;4349222;32;20426;-71
2021/12/05 06:12:44;;;;;;;11.82;8.88;;;;;;;;;;4362680;32;20101;-71
2021/12/05 06:15:10;;;;;;;;;;;;;;;;;;4362261;32;20030;-71
2021/12/05 06:17:36;;;;;;;13.00;8.73;;;;;;;;;;4362973;32;19946;-71
2021/12/05 06:20:01;;;;;;;;;;;;;;;;;;4362399;33;20031;-71
2021/12/05 06:22:27;;;;;;;15.00;9.75;;;;;;;;;;4361906;32;19977;-71
2021/12/05 06:24:52;;;;;;;;;;;;;;;;;;4362479;32;20057;-71
2021/12/05 06:27:17;;;;;;;14.87;9.00;;;;;;;;;;4361617;32;19949;-71
2021/12/05 06:29:51;;;;;;;;;;;;;;;;;;4362390;32;20023;-71
2021/12/05 06:36:48;;;;;;;12.55;8.65;;;;;;;;;;4361950;32;19964;-71
2021/12/05 06:38:11;;;;;;;14.80;10.07;;;;;;;;;;4361655;32;20046;-71
2021/12/05 06:41:03;;;;;;;13.23;9.27;;;;;;;;;;4361171;32;20381;-71
2021/12/05 06:46:38;;;;;;;16.02;10.40;;;;;;;;;;4362225;32;20023;-71
2021/12/05 06:49:09;;;;;;;15.45;9.60;;;;;;;;;;4362083;32;20061;-72
2021/12/05 06:51:37;;;;;;;13.18;9.68;;;;;;;;;;4361659;32;20063;-71
2021/12/05 06:54:02;;;;;;;12.45;10.02;;;;;;;;;;4362990;32;20027;-71
2021/12/05 06:56:28;;;;;;;;;;;;;;;;;;4362142;32;20062;-71
2021/12/05 06:58:53;;;;;;;10.55;8.07;;;;;;;;;;4361682;32;19935;-71
2021/12/05 07:01:18;;;;;;;;;;;;;;;;;;4362537;32;20186;-72
2021/12/05 07:03:46;;;;;;;12.12;8.50;;;;;;;;;;4361541;32;19949;-71
2021/12/05 07:06:28;;;;;;;14.70;8.38;;;;;;;;;;4361097;32;20384;-71
2021/12/05 07:08:59;;;;;;;10.68;7.57;;;;;;;;;;4360900;33;20023;-71
2021/12/05 07:11:39;;;;;;;14.20;7.72;;;;;;;;;;4349226;33;20015;-71
2021/12/05 07:22:00;;;;;;;11.43;7.80;;;;;;;;;;4361222;32;20373;-71
2021/12/05 07:42:46;;;;;;;;;;;;;;;;;;4361485;32;20023;-72
2021/12/05 07:45:33;;;;;;;17.98;11.98;;;;;;;;;;4360421;32;20317;-71
2021/12/05 07:48:07;;;;;;;20.10;13.02;;;;;;;;;;4360981;32;20051;-71
2021/12/05 07:50:48;;;;;;;23.20;14.13;;;;;;;;;;4346826;32;20079;-71
2021/12/05 07:53:25;;;;;;;20.80;13.00;;;;;;;;;;4360606;33;20027;-71
2021/12/05 07:55:54;;;;;;;;;;;;;;;;;;4361115;32;20037;-71
2021/12/05 08:16:30;;;;;;;14.68;10.63;;;;;;;;;;4360966;32;20053;-71
2021/12/05 08:19:18;;;;;;;;;;;;;;;;;;;;;
2021/12/05 08:21:54;;;;;;;;;;;;;;;;;;;;;
2021/12/05 08:24:50;;;;;;;14.98;9.38;;;;;;;;;;4325050;33;20418;-71
2021/12/05 08:27:56;;;;;;;15.80;10.27;;;;;;;;;;4361236;33;20054;-71
2021/12/05 08:30:33;;;;;;;18.50;10.60;;;;;;;;;;4339095;33;20027;-72
2021/12/05 09:21:37;;;;;;;16.73;11.12;;;;;;;;;;4321167;33;20071;-72
2021/12/05 10:03:12;;;;;;;15.38;9.80;;;;;;;;;;4362117;32;20129;-71
2021/12/05 10:08:46;;;;;;;13.93;9.68;;;;;;;;;;4361989;32;20042;-72
2021/12/05 10:36:10;;;;;;;;;;;;;;;;;;4321656;33;20058;-72
2021/12/05 10:38:51;;;;;;;11.30;6.10;;;;;;;;;;4360592;32;20420;-72
2021/12/05 10:41:33;;;;;;;11.18;6.20;;;;;;;;;;4348824;33;20073;-70
2021/12/05 10:44:07;;;;;;;8.90;6.28;;;;;;;;;;4348213;33;20027;-71
2021/12/05 10:46:35;;;;;;;9.13;6.37;;;;;;;;;;4361564;32;20036;-71
2021/12/05 10:49:11;;;;;;;8.45;6.80;;;;;;;;;;4361629;32;20106;-70
2021/12/05 10:51:38;;;;;;;8.88;6.10;;;;;;;;;;4361761;32;20047;-72
2021/12/05 10:54:13;;;;;;;9.65;6.32;;;;;;;;;;4361941;32;20094;-72
2021/12/05 10:56:43;;;;;;;7.82;6.30;;;;;;;;;;4359971;32;20035;-71
2021/12/05 10:59:12;;;;;;;7.80;5.72;;;;;;;;;;4361461;32;20103;-72
2021/12/05 11:01:48;;;;;;;8.13;6.32;;;;;;;;;;4361113;32;20157;-72
2021/12/05 11:04:18;;;;;;;8.07;6.12;;;;;;;;;;4347394;33;20023;-72
2021/12/05 11:06:52;;;;;;;6.43;5.28;;;;;;;;;;4362025;32;20393;-71
2021/12/05 11:09:32;;;;;;;6.03;4.93;;;;;;;;;;4360436;32;20062;-73
2021/12/05 11:12:05;;;;;;;12.07;6.35;;;;;;;;;;4347348;33;20101;-72
2021/12/05 11:14:35;;;;;;;8.60;5.55;;;;;;;;;;4360949;32;20042;-72
2021/12/05 11:17:28;;;;;;;6.28;5.35;;;;;;;;;;4361677;32;20031;-73
2021/12/05 11:20:39;;;;;;;6.20;5.30;;;;;;;;;;4361917;32;20058;-72
2021/12/05 11:23:16;;;;;;;13.38;6.28;;;;;;;;;;4354183;33;20078;-71
2021/12/05 11:25:45;;;;;;;6.68;5.28;;;;;;;;;;4346666;33;20035;-72
2021/12/05 11:28:40;;;;;;;8.70;6.30;;;;;;;;;;4360775;33;20055;-72
2021/12/05 11:31:05;;;;;;;7.72;6.68;;;;;;;;;;4354158;33;20053;-72
2021/12/05 11:33:30;;;;;;;;;;;;;;;;;;4362178;32;20028;-72
2021/12/05 11:35:58;;;;;;;8.63;6.85;;;;;;;;;;4360557;32;19948;-71
2021/12/05 11:38:28;;;;;;;10.43;8.63;;;;;;;;;;4361260;32;20031;-71
2021/12/05 11:40:59;;;;;;;13.40;9.57;;;;;;;;;;4360939;32;20046;-71
2021/12/05 11:43:34;;;;;;;14.00;8.95;;;;;;;;;;4347903;33;20039;-71
2021/12/05 11:46:21;;;;;;;16.37;9.90;;;;;;;;;;4361358;32;20073;-71
2021/12/05 11:48:49;;;;;;;19.05;10.73;;;;;;;;;;4358886;33;20424;-70
2021/12/05 11:51:52;;;;;;;18.08;11.57;;;;;;;;;;4345348;33;20445;-72
2021/12/05 11:54:45;;;;;;;18.52;10.40;;;;;;;;;;4346845;33;20036;-71
2021/12/05 11:57:24;;;;;;;21.00;13.32;;;;;;;;;;4360951;32;20053;-71
2021/12/05 11:59:51;;;;;;;21.12;14.13;;;;;;;;;;4360381;32;20040;-71
2021/12/05 12:02:19;;;;;;;32.83;18.85;;;;;;;;;;4360208;32;20059;-72
2021/12/05 12:04:47;;;;;;;26.83;14.07;;;;;;;;;;4360081;32;20036;-72
2021/12/05 12:07:27;;;;;;;31.20;15.25;;;;;;;;;;4360251;32;20031;-72
2021/12/05 12:09:55;;;;;;;26.98;14.52;;;;;;;;;;4360820;32;20031;-72
2021/12/05 12:12:21;;;;;;;32.05;16.10;;;;;;;;;;4360391;32;20074;-72
2021/12/05 12:14:49;;;;;;;;;;;;;;;;;;4360873;32;20409;-72
2021/12/05 12:17:16;;;;;;;28.02;15.48;;;;;;;;;;4360665;33;19942;-72
2021/12/05 12:19:42;;;;;;;30.23;15.73;;;;;;;;;;4346878;33;20035;-72
2021/12/05 12:22:19;;;;;;;;;;;;;;;;;;4360601;33;20035;-71
2021/12/05 12:24:45;;;;;;;39.15;17.98;;;;;;;;;;4358934;33;20268;-71
2021/12/05 12:27:12;;;;;;;;;;;;;;;;;;4360848;33;20061;-72
2021/12/05 12:29:57;;;;;;;34.40;17.75;;;;;;;;;;4360672;33;19948;-71
2021/12/05 12:32:28;;;;;;;38.80;19.02;;;;;;;;;;4359904;33;20039;-71
2021/12/05 12:35:14;;;;;;;36.85;20.48;;;;;;;;;;4360668;33;20038;-71
2021/12/05 12:37:52;;;;;;;42.55;21.23;;;;;;;;;;4361049;32;20083;-72
2021/12/05 12:40:30;;;;;;;45.45;23.50;;;;;;;;;;4362825;32;20027;-72
2021/12/05 12:42:55;;;;;;;43.35;24.63;;;;;;;;;;4363790;32;20078;-71
2021/12/05 12:45:21;;;;;;;;;;;;;;;;;;4363908;32;20065;-72
2021/12/05 12:47:53;;;;;;;44.50;24.98;;;;;;;;;;4362776;32;20415;-71
2021/12/05 12:50:26;;;;;;;42.25;25.92;;;;;;;;;;4362936;32;20031;-71
2021/12/05 12:52:59;;;;;;;34.85;20.65;;;;;;;;;;4343437;33;20499;-72
2021/12/05 12:55:28;;;;;;;37.97;22.80;;;;;;;;;;4333908;33;20066;-71
2021/12/05 12:57:54;;;;;;;38.70;21.75;;;;;;;;;;4333694;33;20061;-72
2021/12/05 13:00:31;;;;;;;;;;;;;;;;;;4334043;33;20067;-72
2021/12/05 13:03:02;;;;;;;34.03;22.77;;;;;;;;;;4333817;33;19958;-71
2021/12/05 13:05:52;;;;;;;32.55;20.58;;;;;;;;;;4333710;33;20028;-71
2021/12/05 13:11:10;;;;;;;36.95;21.75;;;;;;;;;;4333949;33;20066;-72
2021/12/05 13:13:39;;;;;;;29.98;19.85;;;;;;;;;;4333823;33;20074;-71
2021/12/05 13:16:15;;;;;;;33.33;22.48;;;;;;;;;;4333662;33;20036;-72
2021/12/05 13:18:41;;;;;;;40.97;22.20;;;;;;;;;;4334717;33;20036;-72
2021/12/05 13:21:06;;;;;;;;;;;;;;;;;;4348358;33;20094;-72
2021/12/05 13:23:32;;;;;;;33.83;22.05;;;;;;;;;;4347491;33;19950;-71
2021/12/05 13:25:57;;;;;;;;;;;;;;;;;;4348211;33;20062;-73
2021/12/05 13:28:31;;;;;;;35.50;22.15;;;;;;;;;;4347550;33;20340;-72
2021/12/05 13:30:58;;;;;;;36.10;22.75;;;;;;;;;;4338130;33;20463;-72
2021/12/05 13:33:24;;;;;;;41.55;26.10;;;;;;;;;;4332574;33;20031;-72
2021/12/05 13:35:55;;;;;;;36.65;23.67;;;;;;;;;;4333425;33;20055;-72
2021/12/05 13:38:45;;;;;;;;;;;;;;;;;;;;;
2021/12/05 13:41:29;;;;;;;33.92;23.50;;;;;;;;;;4272594;33;20385;-72
2021/12/05 13:43:55;;;;;;;39.92;23.62;;;;;;;;;;4273719;33;20080;-72
2021/12/05 13:46:23;;;;;;;;;;;;;;;;;;4333034;33;20048;-73
2021/12/05 13:48:48;;;;;;;33.92;21.75;;;;;;;;;;4332482;33;19974;-72
2021/12/05 13:51:14;;;;;;;;;;;;;;;;;;4334404;33;20040;-71
2021/12/05 13:57:52;;;;;;;34.00;20.33;;;;;;;;;;4284627;33;20041;-72
2021/12/05 13:59:53;;;;;;;30.65;19.90;;;;;;;;;;4338957;33;20377;-71
2021/12/05 14:02:57;;;;;;;31.35;21.50;;;;;;;;;;4347167;33;20077;-71
2021/12/05 14:05:37;;;;;;;30.85;20.70;;;;;;;;;;4347646;33;20131;-73
2021/12/05 14:08:10;;;;;;;32.65;20.00;;;;;;;;;;4347294;33;20078;-73
2021/12/05 14:10:44;;;;;;;34.65;19.17;;;;;;;;;;4334046;33;20045;-73
2021/12/05 14:13:12;;;;;;;29.48;18.60;;;;;;;;;;4346975;33;20067;-72
2021/12/05 14:15:56;;;;;;;34.08;20.15;;;;;;;;;;4347135;33;20028;-71
2021/12/05 14:18:22;;;;;;;31.58;19.70;;;;;;;;;;4347367;33;20089;-72
2021/12/05 14:20:48;;;;;;;31.27;20.40;;;;;;;;;;4346607;33;20369;-73
2021/12/05 14:23:22;;;;;;;;;;;;;;;;;;4347466;33;20028;-72
2021/12/05 14:25:47;;;;;;;34.47;22.70;;;;;;;;;;4330108;33;19934;-72
2021/12/05 14:28:13;;;;;;;;;;;;;;;;;;4346897;33;20143;-72
2021/12/05 14:30:38;;;;;;;30.30;20.90;;;;;;;;;;4334055;33;20322;-72
2021/12/05 14:33:03;;;;;;;;;;;;;;;;;;4346927;33;20027;-71
2021/12/05 14:35:32;;;;;;;31.60;23.35;;;;;;;;;;4347571;33;20231;-72
2021/12/05 14:37:57;;;;;;;29.83;20.37;;;;;;;;;;4346743;33;20140;-73
2021/12/05 14:40:30;;;;;;;;;;;;;;;;;;4346840;33;20074;-74
2021/12/05 14:42:58;;;;;;;35.50;23.15;;;;;;;;;;4347171;33;19935;-72
2021/12/05 14:45:26;;;;;;;32.50;23.10;;;;;;;;;;4346590;33;20082;-72
2021/12/05 14:48:02;;;;;;;33.75;22.30;;;;;;;;;;4346325;33;20044;-71
2021/12/05 14:50:30;;;;;;;32.50;20.92;;;;;;;;;;4346163;33;20357;-72
2021/12/05 14:52:56;;;;;;;32.47;21.37;;;;;;;;;;4358001;32;20039;-71
2021/12/05 14:55:23;;;;;;;32.58;21.83;;;;;;;;;;4361485;32;20027;-72
2021/12/05 14:57:50;;;;;;;34.70;22.23;;;;;;;;;;4361511;32;20032;-72
2021/12/05 15:00:18;;;;;;;37.10;24.77;;;;;;;;;;4347480;32;20066;-72
2021/12/05 15:02:47;;;;;;;35.80;24.75;;;;;;;;;;4360969;32;20441;-72
2021/12/05 15:05:17;;;;;;;36.65;25.40;;;;;;;;;;4360998;32;20051;-72
2021/12/05 15:07:49;;;;;;;37.63;25.12;;;;;;;;;;4361325;32;20031;-72
2021/12/05 15:11:03;;;;;;;42.25;26.23;;;;;;;;;;4347453;33;20057;-71
2021/12/05 15:13:11;;;;;;;38.45;24.92;;;;;;;;;;4360248;32;20444;-72
2021/12/05 15:15:42;;;;;;;37.72;26.17;;;;;;;;;;4376297;32;20061;-71
2021/12/05 15:18:28;;;;;;;40.90;27.83;;;;;;;;;;4375789;32;20035;-73
2021/12/05 15:20:54;;;;;;;42.35;25.88;;;;;;;;;;4376717;32;20030;-72
2021/12/05 15:23:19;;;;;;;;;;;;;;;;;;4376123;32;20442;-72
2021/12/05 15:26:03;;;;;;;;;;;;;;;;;;;;;
2021/12/05 15:28:29;;;;;;;41.30;25.65;;;;;;;;;;4370603;32;20044;-73
2021/12/05 15:30:54;;;;;;;;;;;;;;;;;;4361540;32;20074;-72
2021/12/05 15:33:20;;;;;;;43.78;28.00;;;;;;;;;;4361316;32;20341;-72
2021/12/05 15:38:31;;;;;;;49.05;31.87;;;;;;;;;;4361146;33;20526;-72
2021/12/05 15:41:23;;;;;;;44.50;27.70;;;;;;;;;;4360537;33;20085;-72
2021/12/05 15:43:51;;;;;;;40.95;24.50;;;;;;;;;;4356640;33;20027;-71
2021/12/05 15:46:28;;;;;;;35.05;23.98;;;;;;;;;;4360730;32;20031;-72
2021/12/05 15:48:55;;;;;;;32.20;22.17;;;;;;;;;;4360723;33;20022;-72
2021/12/05 15:51:21;;;;;;;33.97;23.20;;;;;;;;;;4360286;32;20031;-72
2021/12/05 15:53:50;;;;;;;29.70;20.42;;;;;;;;;;4361479;32;20023;-71
2021/12/05 15:56:17;;;;;;;34.65;22.13;;;;;;;;;;4360592;32;20043;-72
2021/12/05 15:58:52;;;;;;;30.05;19.55;;;;;;;;;;4360605;33;20099;-72
2021/12/05 16:01:22;;;;;;;28.62;19.42;;;;;;;;;;4360784;33;20028;-72
2021/12/05 16:03:55;;;;;;;28.08;17.42;;;;;;;;;;4361455;32;20414;-72
2021/12/05 16:06:32;;;;;;;23.77;16.50;;;;;;;;;;4360225;32;20051;-72
2021/12/05 16:08:57;;;;;;;;;;;;;;;;;;4361002;32;20054;-72
2021/12/05 16:11:23;;;;;;;25.20;17.83;;;;;;;;;;4360425;32;20286;-72
2021/12/05 16:13:48;;;;;;;;;;;;;;;;;;4360701;32;20031;-72
2021/12/05 16:16:15;;;;;;;29.10;18.83;;;;;;;;;;4360908;32;19934;-73
2021/12/05 16:24:29;;;;;;;33.03;23.00;;;;;;;;;;4360121;32;20081;-73
2021/12/05 16:27:07;;;;;;;27.83;19.87;;;;;;;;;;4346463;33;20049;-73
2021/12/05 16:29:35;;;;;;;29.17;21.35;;;;;;;;;;4360103;33;20047;-72
2021/12/05 16:32:03;;;;;;;24.50;17.67;;;;;;;;;;4360102;33;20055;-73
2021/12/05 16:34:33;;;;;;;27.25;17.80;;;;;;;;;;4359763;33;20031;-73
2021/12/05 16:37:00;;;;;;;28.85;20.17;;;;;;;;;;4360155;33;20028;-72
2021/12/05 16:40:13;;;;;;;24.35;18.37;;;;;;;;;;4346650;33;20463;-72
2021/12/05 16:42:39;;;;;;;27.37;18.42;;;;;;;;;;4354742;33;20406;-73
2021/12/05 16:45:05;;;;;;;;;;;;;;;;;;4360877;33;20035;-73
2021/12/05 16:47:31;;;;;;;29.83;20.33;;;;;;;;;;4359972;33;19968;-72
2021/12/05 16:50:03;;;;;;;37.35;24.00;;;;;;;;;;4360558;33;20432;-73
2021/12/05 16:52:33;;;;;;;38.83;24.10;;;;;;;;;;4346544;33;20087;-72
2021/12/05 16:55:22;;;;;;;37.10;24.98;;;;;;;;;;4360399;33;20085;-72
2021/12/05 16:58:14;;;;;;;40.63;25.98;;;;;;;;;;4360740;33;20023;-72
2021/12/05 17:00:37;;;;;;;37.42;23.65;;;;;;;;;;4357617;33;20032;-72
2021/12/05 17:03:05;;;;;;;37.78;21.83;;;;;;;;;;4359976;33;20035;-73
2021/12/05 17:05:37;;;;;;;35.13;22.25;;;;;;;;;;4359639;33;20130;-72
2021/12/05 17:08:10;;;;;;;29.90;20.65;;;;;;;;;;4360998;33;20019;-73
2021/12/05 17:10:46;;;;;;;29.50;20.55;;;;;;;;;;4361068;33;20058;-72
2021/12/05 17:13:20;;;;;;;26.90;18.65;;;;;;;;;;4360374;33;20027;-73
2021/12/05 17:16:07;;;;;;;30.48;21.12;;;;;;;;;;4360270;33;20089;-72
2021/12/05 17:18:34;;;;;;;32.30;20.75;;;;;;;;;;4346367;33;20027;-72
2021/12/05 17:21:07;;;;;;;30.90;21.37;;;;;;;;;;4359665;33;20127;-72
2021/12/05 17:23:38;;;;;;;33.67;21.10;;;;;;;;;;4360028;32;20062;-72
2021/12/05 17:26:11;;;;;;;28.90;20.80;;;;;;;;;;4362792;32;20062;-72
2021/12/05 17:28:42;;;;;;;30.85;20.50;;;;;;;;;;4363919;32;20040;-72
2021/12/05 17:31:18;;;;;;;33.58;22.23;;;;;;;;;;4362478;32;20096;-72
2021/12/05 17:33:45;;;;;;;33.10;20.90;;;;;;;;;;4349712;33;20019;-72
2021/12/05 17:36:12;;;;;;;31.23;20.67;;;;;;;;;;4358476;32;20073;-72
2021/12/05 17:38:47;;;;;;;29.55;21.17;;;;;;;;;;4378191;32;20031;-72
2021/12/05 17:41:12;;;;;;;29.67;21.73;;;;;;;;;;4376790;32;20085;-72
2021/12/05 17:43:38;;;;;;;;;;;;;;;;;;4378289;32;20035;-72
2021/12/05 17:46:06;;;;;;;28.23;18.98;;;;;;;;;;4377484;32;20288;-72
2021/12/05 17:48:52;;;;;;;34.28;22.10;;;;;;;;;;4364474;32;20031;-72
2021/12/05 17:51:38;;;;;;;35.67;21.95;;;;;;;;;;4361920;33;20409;-72
2021/12/05 17:54:07;;;;;;;35.03;22.85;;;;;;;;;;4362446;32;20032;-72
2021/12/05 18:05:06;;;;;;;37.60;25.23;;;;;;;;;;4362690;32;20461;-71
2021/12/05 18:07:31;;;;;;;34.50;23.48;;;;;;;;;;4362446;32;20465;-71
2021/12/05 18:09:56;;;;;;;;;;;;;;;;;;4377538;32;20058;-72
2021/12/05 18:12:32;;;;;;;35.28;22.55;;;;;;;;;;4376855;32;19954;-71
2021/12/05 18:15:00;;;;;;;34.60;23.67;;;;;;;;;;4368414;32;20383;-72
2021/12/05 18:17:25;;;;;;;36.00;23.00;;;;;;;;;;4362344;32;20135;-72
2021/12/05 18:19:50;;;;;;;;;;;;;;;;;;4362218;33;20058;-72
2021/12/05 18:22:35;;;;;;;;;;;;;;;;;;;;;
2021/12/05 18:25:01;;;;;;;31.92;22.55;;;;;;;;;;4364921;32;20085;-72
2021/12/05 18:27:26;;;;;;;;;;;;;;;;;;4376862;32;20027;-72
2021/12/05 18:29:51;;;;;;;34.47;21.70;;;;;;;;;;4376999;32;19934;-72
2021/12/05 18:32:16;;;;;;;;;;;;;;;;;;4377781;32;20419;-72
2021/12/05 18:34:44;;;;;;;32.96;21.90;;;;;;;;;;4376978;32;19954;-72
2021/12/05 18:37:10;;;;;;;32.13;22.15;;;;;;;;;;4376983;32;20101;-72
2021/12/05 18:39:38;;;;;;;34.47;23.67;;;;;;;;;;4377906;32;20074;-71
2021/12/05 18:42:06;;;;;;;35.25;23.48;;;;;;;;;;4376135;32;20043;-71
2021/12/05 18:44:37;;;;;;;37.00;24.65;;;;;;;;;;4376723;32;20034;-71
2021/12/05 18:47:02;;;;;;;35.05;22.77;;;;;;;;;;4377228;32;20035;-72
2021/12/05 18:49:28;;;;;;;;;;;;;;;;;;4363198;32;20099;-71
2021/12/05 18:51:54;;;;;;;40.50;26.10;;;;;;;;;;4376416;32;19964;-71
2021/12/05 18:54:19;;;;;;;;;;;;;;;;;;4377769;32;20376;-72
2021/12/05 18:56:45;;;;;;;43.87;27.50;;;;;;;;;;4376050;32;20317;-71
2021/12/05 19:04:51;;;;;;;36.35;23.90;;;;;;;;;;4376178;32;20097;-71
2021/12/05 19:07:23;;;;;;;39.45;25.67;;;;;;;;;;4376306;32;20421;-71
2021/12/05 19:13:01;;;;;;;39.70;25.58;;;;;;;;;;4376374;32;20107;-71
2021/12/05 19:15:27;;;;;;;39.50;26.52;;;;;;;;;;4376197;32;20069;-71
2021/12/05 19:17:52;;;;;;;;;;;;;;;;;;4376946;32;20027;-72
2021/12/05 19:20:31;;;;;;;43.58;24.15;;;;;;;;;;4375673;32;19934;-72
2021/12/05 19:22:58;;;;;;;38.80;24.25;;;;;;;;;;4376714;32;20026;-72
2021/12/05 19:25:25;;;;;;;40.55;25.12;;;;;;;;;;4376403;32;20077;-72
2021/12/05 19:27:51;;;;;;;36.42;24.25;;;;;;;;;;4375522;32;20429;-72
2021/12/05 19:30:27;;;;;;;35.67;22.90;;;;;;;;;;4375864;32;20039;-72
2021/12/05 19:32:56;;;;;;;37.47;22.95;;;;;;;;;;4376226;32;20352;-72
2021/12/05 19:35:21;;;;;;;36.72;23.40;;;;;;;;;;4376061;32;20038;-72
2021/12/05 19:37:46;;;;;;;;;;;;;;;;;;4362617;32;20023;-72
2021/12/05 19:40:56;;;;;;;36.42;23.33;;;;;;;;;;4376394;32;19934;-71
2021/12/05 19:43:24;;;;;;;36.90;23.73;;;;;;;;;;4367395;32;20098;-71
2021/12/05 19:46:18;;;;;;;40.10;24.17;;;;;;;;;;4351182;32;20053;-71
2021/12/05 19:48:46;;;;;;;42.03;25.12;;;;;;;;;;4375060;32;20023;-71
2021/12/05 19:51:16;;;;;;;41.00;23.87;;;;;;;;;;4375351;32;20101;-71
2021/12/05 19:53:44;;;;;;;37.65;24.33;;;;;;;;;;4376030;32;20043;-71
2021/12/05 19:56:10;;;;;;;43.33;26.48;;;;;;;;;;4375236;32;20027;-71
2021/12/05 19:58:35;;;;;;;;;;;;;;;;;;4376676;32;20019;-72
2021/12/05 20:01:00;;;;;;;42.33;25.70;;;;;;;;;;4375403;32;19958;-71
2021/12/05 20:03:26;;;;;;;;;;;;;;;;;;4375960;32;20508;-71
2021/12/05 20:05:51;;;;;;;39.90;24.50;;;;;;;;;;4375079;32;20010;-71
2021/12/05 20:08:16;;;;;;;;;;;;;;;;;;4362142;32;20052;-71
2021/12/05 20:10:42;;;;;;;35.12;23.84;;;;;;;;;;4375367;32;19934;-72
2021/12/05 20:16:25;;;;;;;42.08;25.33;;;;;;;;;;4314285;33;20439;-72
2021/12/05 20:18:50;;;;;;;41.17;25.70;;;;;;;;;;4362043;32;20054;-73
2021/12/05 20:21:18;;;;;;;;;;;;;;;;;;4375097;32;20048;-73
2021/12/05 20:23:43;;;;;;;;;;;;;;;;;;4375368;32;19992;-73
2021/12/05 20:26:29;;;;;;;42.28;25.67;;;;;;;;;;4375438;32;19934;-73
2021/12/05 20:28:55;;;;;;;40.83;25.02;;;;;;;;;;4375101;32;20023;-73
2021/12/05 20:31:20;;;;;;;;;;;;;;;;;;4375517;32;20051;-73
2021/12/05 20:33:49;;;;;;;36.90;23.23;;;;;;;;;;4375495;32;19945;-73
2021/12/05 20:36:15;;;;;;;38.78;24.73;;;;;;;;;;4375128;32;20314;-72
2021/12/05 20:38:40;;;;;;;;;;;;;;;;;;4375840;32;20024;-72
2021/12/05 20:41:16;;;;;;;40.35;25.52;;;;;;;;;;4373985;32;19957;-72
2021/12/05 20:43:45;;;;;;;40.75;24.40;;;;;;;;;;4361742;32;20027;-72
2021/12/05 20:46:14;;;;;;;38.08;24.67;;;;;;;;;;4364135;32;20112;-72
2021/12/05 20:48:39;;;;;;;47.28;26.50;;;;;;;;;;4359766;33;20027;-73
2021/12/05 20:51:04;;;;;;;;;;;;;;;;;;4360677;33;20327;-72
2021/12/05 20:53:41;;;;;;;42.38;25.90;;;;;;;;;;4359721;33;19967;-72
2021/12/05 20:56:22;;;;;;;45.90;27.08;;;;;;;;;;4363299;32;20034;-72